createdAt,value
2018-02-25T00:00:14.604Z,0.00
2018-02-25T00:01:14.596Z,0.00
2018-02-25T00:02:14.615Z,0.00
2018-02-25T00:03:14.563Z,0.00
2018-02-25T00:04:14.549Z,0.00
2018-02-25T00:05:14.533Z,0.00
2018-02-25T00:06:14.519Z,0.00
2018-02-25T00:07:14.500Z,0.00
2018-02-25T00:08:14.491Z,0.00
2018-02-25T00:09:14.473Z,0.00
2018-02-25T00:10:14.459Z,0.00
2018-02-25T00:11:14.443Z,0.00
2018-02-25T00:12:14.427Z,0.00
2018-02-25T00:13:14.414Z,0.00
2018-02-25T00:14:14.396Z,0.00
2018-02-25T00:15:14.391Z,0.00
2018-02-25T00:16:14.383Z,0.00
2018-02-25T00:17:14.353Z,0.00
2018-02-25T00:18:14.335Z,0.00
2018-02-25T00:19:14.322Z,0.00
2018-02-25T00:20:14.311Z,0.00
2018-02-25T00:21:14.312Z,0.00
2018-02-25T00:22:14.276Z,0.00
2018-02-25T00:23:14.264Z,0.00
2018-02-25T00:24:14.257Z,0.00
2018-02-25T00:25:14.234Z,0.00
2018-02-25T00:26:14.227Z,0.00
2018-02-25T00:27:14.205Z,0.00
2018-02-25T00:28:14.188Z,0.00
2018-02-25T00:29:14.182Z,0.00
2018-02-25T00:30:14.163Z,0.00
2018-02-25T00:31:14.146Z,0.00
2018-02-25T00:32:14.134Z,0.00
2018-02-25T00:33:14.119Z,0.00
2018-02-25T00:34:14.099Z,0.00
2018-02-25T00:35:14.085Z,0.00
2018-02-25T00:36:14.068Z,0.00
2018-02-25T00:37:14.053Z,0.00
2018-02-25T00:38:14.040Z,0.00
2018-02-25T00:39:14.031Z,0.00
2018-02-25T00:40:14.013Z,0.00
2018-02-25T00:41:13.998Z,0.00
2018-02-25T00:42:13.981Z,0.00
2018-02-25T00:43:13.965Z,0.00
2018-02-25T00:44:13.959Z,0.00
2018-02-25T00:45:13.936Z,0.00
2018-02-25T00:46:13.921Z,0.00
2018-02-25T00:47:13.973Z,0.00
2018-02-25T00:48:13.890Z,0.00
2018-02-25T00:49:13.873Z,0.00
2018-02-25T00:50:13.860Z,0.00
2018-02-25T00:51:13.851Z,0.00
2018-02-25T00:52:13.837Z,0.00
2018-02-25T00:53:13.813Z,0.00
2018-02-25T00:54:13.799Z,0.00
2018-02-25T00:55:13.796Z,0.00
2018-02-25T00:56:13.769Z,0.00
2018-02-25T00:57:13.754Z,0.00
2018-02-25T00:58:27.060Z,0.00
2018-02-25T01:00:08.180Z,0.00
2018-02-25T01:01:08.106Z,0.00
2018-02-25T01:03:03.566Z,0.00
2018-02-25T01:04:03.416Z,0.00
2018-02-25T01:05:57.821Z,0.00
2018-02-25T01:06:57.853Z,0.00
2018-02-25T01:07:57.728Z,0.00
2018-02-25T01:08:57.674Z,0.00
2018-02-25T01:09:57.663Z,0.00
2018-02-25T01:10:57.660Z,0.00
2018-02-25T01:11:57.624Z,0.00
2018-02-25T01:12:57.616Z,0.00
2018-02-25T01:13:57.592Z,0.00
2018-02-25T01:14:57.616Z,0.00
2018-02-25T01:15:57.593Z,0.00
2018-02-25T01:16:57.552Z,0.00
2018-02-25T01:17:57.561Z,0.00
2018-02-25T01:18:57.518Z,0.00
2018-02-25T01:19:57.502Z,0.00
2018-02-25T01:20:57.486Z,0.00
2018-02-25T01:21:57.475Z,0.00
2018-02-25T01:22:57.465Z,0.00
2018-02-25T01:23:57.447Z,0.00
2018-02-25T01:24:57.478Z,0.00
2018-02-25T01:25:57.411Z,0.00
2018-02-25T01:26:57.398Z,0.00
2018-02-25T01:27:57.383Z,0.00
2018-02-25T01:28:57.370Z,0.00
2018-02-25T01:29:57.356Z,0.00
2018-02-25T01:30:57.340Z,0.00
2018-02-25T01:31:57.345Z,0.00
2018-02-25T01:32:57.302Z,0.00
2018-02-25T01:33:57.293Z,0.00
2018-02-25T01:34:57.274Z,0.00
2018-02-25T01:35:57.265Z,0.00
2018-02-25T01:36:57.257Z,0.00
2018-02-25T01:37:57.231Z,0.00
2018-02-25T01:38:57.213Z,0.00
2018-02-25T01:39:57.201Z,0.00
2018-02-25T01:40:57.187Z,0.00
2018-02-25T01:41:57.183Z,0.00
2018-02-25T01:42:57.157Z,0.00
2018-02-25T01:43:57.138Z,0.00
2018-02-25T01:44:57.122Z,0.00
2018-02-25T01:45:57.106Z,0.00
2018-02-25T01:46:57.093Z,0.00
2018-02-25T01:47:57.077Z,0.00
2018-02-25T01:48:57.067Z,0.00
2018-02-25T01:49:57.058Z,0.00
2018-02-25T01:50:57.031Z,0.00
2018-02-25T01:51:57.022Z,0.00
2018-02-25T01:52:57.009Z,0.00
2018-02-25T01:53:57.034Z,0.00
2018-02-25T01:54:56.973Z,0.00
2018-02-25T01:55:56.982Z,0.00
2018-02-25T01:56:56.962Z,0.00
2018-02-25T01:57:56.927Z,0.00
2018-02-25T01:58:56.911Z,0.00
2018-02-25T01:59:56.891Z,0.00
2018-02-25T02:00:56.877Z,0.00
2018-02-25T02:01:56.867Z,0.00
2018-02-25T02:02:56.849Z,0.00
2018-02-25T02:03:56.830Z,0.00
2018-02-25T02:04:56.816Z,0.00
2018-02-25T02:05:56.800Z,0.00
2018-02-25T02:06:56.793Z,0.00
2018-02-25T02:07:56.787Z,0.00
2018-02-25T02:08:56.751Z,0.00
2018-02-25T02:09:56.738Z,0.00
2018-02-25T02:10:56.723Z,0.00
2018-02-25T02:11:56.709Z,0.00
2018-02-25T02:12:56.695Z,0.00
2018-02-25T02:13:56.675Z,0.00
2018-02-25T02:14:56.665Z,0.00
2018-02-25T02:15:56.646Z,0.00
2018-02-25T02:16:56.629Z,0.00
2018-02-25T02:17:56.616Z,0.00
2018-02-25T02:18:56.600Z,0.00
2018-02-25T02:19:56.585Z,0.00
2018-02-25T02:20:56.571Z,0.00
2018-02-25T02:21:56.572Z,0.00
2018-02-25T02:22:56.536Z,0.00
2018-02-25T02:23:56.523Z,0.00
2018-02-25T02:24:56.512Z,0.00
2018-02-25T02:25:56.493Z,0.00
2018-02-25T02:26:56.478Z,0.00
2018-02-25T02:27:56.464Z,0.00
2018-02-25T02:28:56.449Z,0.00
2018-02-25T02:29:56.429Z,0.00
2018-02-25T02:30:56.413Z,0.00
2018-02-25T02:31:56.399Z,0.00
2018-02-25T02:32:56.385Z,0.00
2018-02-25T02:33:56.368Z,0.00
2018-02-25T02:34:56.351Z,0.00
2018-02-25T02:35:56.338Z,0.00
2018-02-25T02:36:56.325Z,0.00
2018-02-25T02:37:56.313Z,0.00
2018-02-25T02:38:56.288Z,0.00
2018-02-25T02:39:56.305Z,0.00
2018-02-25T02:40:56.260Z,0.00
2018-02-25T02:41:56.245Z,0.00
2018-02-25T02:42:56.230Z,0.00
2018-02-25T02:43:56.218Z,0.00
2018-02-25T02:44:56.202Z,0.00
2018-02-25T02:45:56.188Z,0.00
2018-02-25T02:46:56.166Z,0.00
2018-02-25T02:47:56.152Z,0.00
2018-02-25T02:48:56.150Z,0.00
2018-02-25T02:49:56.140Z,0.00
2018-02-25T02:50:56.103Z,0.00
2018-02-25T02:51:56.091Z,0.00
2018-02-25T02:52:56.074Z,0.00
2018-02-25T02:53:56.065Z,0.00
2018-02-25T02:54:56.044Z,0.00
2018-02-25T02:55:56.030Z,0.00
2018-02-25T02:56:56.014Z,0.00
2018-02-25T02:57:56.001Z,0.00
2018-02-25T02:58:55.986Z,0.00
2018-02-25T02:59:55.973Z,0.00
2018-02-25T03:00:55.952Z,0.00
2018-02-25T03:01:55.947Z,0.00
2018-02-25T03:02:55.924Z,0.00
2018-02-25T03:03:55.907Z,0.00
2018-02-25T03:04:55.888Z,0.00
2018-02-25T03:05:55.873Z,0.00
2018-02-25T03:06:55.858Z,0.00
2018-02-25T03:07:55.841Z,0.00
2018-02-25T03:08:55.832Z,0.00
2018-02-25T03:09:55.812Z,0.00
2018-02-25T03:10:55.808Z,0.00
2018-02-25T03:11:55.784Z,0.00
2018-02-25T03:12:55.784Z,0.00
2018-02-25T03:13:55.752Z,0.00
2018-02-25T03:14:55.736Z,0.00
2018-02-25T03:15:55.720Z,0.00
2018-02-25T03:16:55.708Z,0.00
2018-02-25T03:17:55.704Z,0.00
2018-02-25T03:18:55.673Z,0.00
2018-02-25T03:19:55.667Z,0.00
2018-02-25T03:20:55.641Z,0.00
2018-02-25T03:21:55.624Z,0.00
2018-02-25T03:22:55.613Z,0.00
2018-02-25T03:23:55.598Z,0.00
2018-02-25T03:24:55.581Z,0.00
2018-02-25T03:25:55.569Z,0.00
2018-02-25T03:26:55.577Z,0.00
2018-02-25T03:27:55.542Z,0.00
2018-02-25T03:28:55.522Z,0.00
2018-02-25T03:29:55.504Z,0.00
2018-02-25T03:30:55.489Z,0.00
2018-02-25T03:31:55.473Z,0.00
2018-02-25T03:32:55.481Z,0.00
2018-02-25T03:33:55.440Z,0.00
2018-02-25T03:34:55.446Z,0.00
2018-02-25T03:35:55.406Z,0.00
2018-02-25T03:36:55.398Z,0.00
2018-02-25T03:37:55.386Z,0.00
2018-02-25T03:38:55.371Z,0.00
2018-02-25T03:39:55.359Z,0.00
2018-02-25T03:40:55.335Z,0.00
2018-02-25T03:41:55.333Z,0.00
2018-02-25T03:42:55.292Z,0.00
2018-02-25T03:43:55.277Z,0.00
2018-02-25T03:44:55.264Z,0.00
2018-02-25T03:45:55.253Z,0.00
2018-02-25T03:46:55.239Z,0.00
2018-02-25T03:47:55.235Z,0.00
2018-02-25T03:48:55.205Z,0.00
2018-02-25T03:49:55.198Z,0.00
2018-02-25T03:50:55.166Z,0.00
2018-02-25T03:51:55.153Z,0.00
2018-02-25T03:52:55.168Z,0.00
2018-02-25T03:53:55.140Z,0.00
2018-02-25T03:54:55.106Z,0.00
2018-02-25T03:55:55.086Z,0.00
2018-02-25T03:56:55.073Z,0.00
2018-02-25T03:57:55.088Z,0.00
2018-02-25T03:58:55.041Z,0.00
2018-02-25T03:59:55.023Z,0.00
2018-02-25T04:00:55.006Z,0.00
2018-02-25T04:01:54.988Z,0.00
2018-02-25T04:02:54.995Z,0.00
2018-02-25T04:03:54.979Z,0.00
2018-02-25T04:04:54.944Z,0.00
2018-02-25T04:05:54.928Z,0.00
2018-02-25T04:06:54.912Z,0.00
2018-02-25T04:07:54.915Z,0.00
2018-02-25T04:08:54.878Z,0.00
2018-02-25T04:09:54.868Z,0.00
2018-02-25T04:10:54.846Z,0.00
2018-02-25T04:11:54.836Z,0.00
2018-02-25T04:12:54.843Z,0.00
2018-02-25T04:13:54.798Z,0.00
2018-02-25T04:14:54.789Z,0.00
2018-02-25T04:15:54.766Z,0.00
2018-02-25T04:16:54.751Z,0.00
2018-02-25T04:17:54.728Z,0.00
2018-02-25T04:18:54.714Z,0.00
2018-02-25T04:19:54.702Z,0.00
2018-02-25T04:20:54.679Z,0.00
2018-02-25T04:21:54.664Z,0.00
2018-02-25T04:22:54.650Z,0.00
2018-02-25T04:23:54.634Z,0.00
2018-02-25T04:24:54.615Z,0.00
2018-02-25T04:25:54.599Z,0.00
2018-02-25T04:26:54.581Z,0.00
2018-02-25T04:27:54.566Z,0.00
2018-02-25T04:28:54.548Z,0.00
2018-02-25T04:29:54.535Z,0.00
2018-02-25T04:30:54.517Z,0.00
2018-02-25T04:31:54.516Z,0.00
2018-02-25T04:32:54.501Z,0.00
2018-02-25T04:33:54.462Z,0.00
2018-02-25T04:34:54.455Z,0.00
2018-02-25T04:35:54.435Z,0.00
2018-02-25T04:36:54.418Z,0.00
2018-02-25T04:37:54.396Z,0.00
2018-02-25T04:38:54.381Z,0.00
2018-02-25T04:39:54.370Z,0.00
2018-02-25T04:40:54.351Z,0.00
2018-02-25T04:41:54.329Z,0.00
2018-02-25T04:42:54.316Z,0.00
2018-02-25T04:43:54.323Z,0.00
2018-02-25T04:44:54.280Z,0.00
2018-02-25T04:45:54.260Z,0.00
2018-02-25T04:46:54.246Z,0.00
2018-02-25T04:47:54.225Z,0.00
2018-02-25T04:48:54.214Z,0.00
2018-02-25T04:49:54.191Z,0.00
2018-02-25T04:50:54.176Z,0.00
2018-02-25T04:51:54.190Z,0.00
2018-02-25T04:52:54.152Z,0.00
2018-02-25T04:53:54.129Z,0.00
2018-02-25T04:54:54.111Z,0.00
2018-02-25T04:55:54.924Z,0.00
2018-02-25T04:56:54.087Z,0.00
2018-02-25T04:57:54.059Z,0.00
2018-02-25T04:58:54.040Z,0.00
2018-02-25T04:59:54.022Z,0.00
2018-02-25T05:00:54.014Z,0.00
2018-02-25T05:01:54.003Z,0.00
2018-02-25T05:02:53.974Z,0.00
2018-02-25T05:03:54.024Z,0.00
2018-02-25T05:04:53.935Z,0.00
2018-02-25T05:05:53.918Z,0.00
2018-02-25T05:06:53.908Z,0.00
2018-02-25T05:07:53.887Z,0.00
2018-02-25T05:08:53.890Z,0.00
2018-02-25T05:09:53.853Z,0.00
2018-02-25T05:10:53.832Z,0.00
2018-02-25T05:11:53.819Z,0.00
2018-02-25T05:12:53.799Z,0.00
2018-02-25T05:13:53.787Z,0.00
2018-02-25T05:14:53.772Z,0.00
2018-02-25T05:15:53.750Z,0.00
2018-02-25T05:16:53.731Z,0.00
2018-02-25T05:17:53.717Z,0.00
2018-02-25T05:18:53.702Z,0.00
2018-02-25T05:19:53.678Z,0.00
2018-02-25T05:20:53.662Z,0.00
2018-02-25T05:21:53.644Z,0.00
2018-02-25T05:22:53.627Z,0.00
2018-02-25T05:23:53.630Z,0.00
2018-02-25T05:24:53.602Z,0.00
2018-02-25T05:25:53.577Z,0.00
2018-02-25T05:26:53.560Z,0.00
2018-02-25T05:27:53.545Z,0.00
2018-02-25T05:28:53.521Z,0.00
2018-02-25T05:29:53.509Z,0.00
2018-02-25T05:30:53.488Z,0.00
2018-02-25T05:31:53.476Z,0.00
2018-02-25T05:32:53.468Z,0.00
2018-02-25T05:33:53.473Z,0.00
2018-02-25T05:34:53.424Z,0.00
2018-02-25T05:35:53.400Z,0.00
2018-02-25T05:36:53.385Z,4.00
2018-02-25T05:37:53.367Z,4.00
2018-02-25T05:38:53.354Z,0.00
2018-02-25T05:39:53.349Z,0.00
2018-02-25T05:40:53.315Z,4.00
2018-02-25T05:41:53.297Z,0.00
2018-02-25T05:42:53.281Z,4.00
2018-02-25T05:43:53.264Z,4.00
2018-02-25T05:44:53.244Z,4.00
2018-02-25T05:45:53.229Z,4.00
2018-02-25T05:46:53.214Z,4.00
2018-02-25T05:47:53.219Z,4.00
2018-02-25T05:48:53.229Z,8.00
2018-02-25T05:49:53.162Z,8.00
2018-02-25T05:50:53.150Z,12.00
2018-02-25T05:51:53.124Z,12.00
2018-02-25T05:52:53.110Z,16.00
2018-02-25T05:53:53.114Z,16.00
2018-02-25T05:54:53.091Z,24.00
2018-02-25T05:55:53.064Z,24.00
2018-02-25T05:56:53.081Z,28.00
2018-02-25T05:57:53.026Z,32.00
2018-02-25T05:58:52.999Z,36.00
2018-02-25T05:59:52.993Z,40.00
2018-02-25T06:00:52.970Z,48.00
2018-02-25T06:01:52.951Z,52.00
2018-02-25T06:02:52.944Z,60.00
2018-02-25T06:03:52.939Z,68.00
2018-02-25T06:04:53.034Z,80.00
2018-02-25T06:05:52.916Z,92.00
2018-02-25T06:06:52.865Z,100.00
2018-02-25T06:07:52.853Z,108.00
2018-02-25T06:08:52.824Z,120.00
2018-02-25T06:09:52.807Z,132.00
2018-02-25T06:10:52.791Z,148.00
2018-02-25T06:11:52.786Z,164.00
2018-02-25T06:12:52.759Z,180.00
2018-02-25T06:13:52.735Z,192.00
2018-02-25T06:14:52.722Z,208.00
2018-02-25T06:15:52.717Z,228.00
2018-02-25T06:16:52.681Z,248.00
2018-02-25T06:17:52.667Z,268.00
2018-02-25T06:18:52.718Z,284.00
2018-02-25T06:19:52.636Z,308.00
2018-02-25T06:20:52.611Z,336.00
2018-02-25T06:21:52.596Z,356.00
2018-02-25T06:22:52.577Z,380.00
2018-02-25T06:23:52.560Z,408.00
2018-02-25T06:24:52.543Z,432.00
2018-02-25T06:25:52.523Z,460.00
2018-02-25T06:26:52.526Z,488.00
2018-02-25T06:27:52.492Z,516.00
2018-02-25T06:28:52.504Z,548.00
2018-02-25T06:29:52.451Z,580.00
2018-02-25T06:30:52.471Z,608.00
2018-02-25T06:31:52.422Z,640.00
2018-02-25T06:32:52.400Z,672.00
2018-02-25T06:33:52.383Z,708.00
2018-02-25T06:34:52.363Z,776.00
2018-02-25T06:35:52.346Z,1420.00
2018-02-25T06:36:52.375Z,1672.00
2018-02-25T06:37:52.310Z,1952.00
2018-02-25T06:38:52.356Z,2076.00
2018-02-25T06:39:53.313Z,1984.00
2018-02-25T06:40:52.257Z,2228.00
2018-02-25T06:41:52.242Z,2540.00
2018-02-25T06:42:52.223Z,3736.00
2018-02-25T06:43:52.769Z,4576.00
2018-02-25T06:44:52.198Z,5260.00
2018-02-25T06:45:52.174Z,5628.00
2018-02-25T06:46:52.195Z,6048.00
2018-02-25T06:47:52.150Z,7236.00
2018-02-25T06:48:52.125Z,7492.00
2018-02-25T06:49:52.110Z,8992.00
2018-02-25T06:50:52.099Z,9600.00
2018-02-25T06:51:52.082Z,11200.00
2018-02-25T06:52:52.067Z,13792.00
2018-02-25T06:53:52.049Z,12864.00
2018-02-25T06:54:52.042Z,13952.00
2018-02-25T06:55:52.029Z,14720.00
2018-02-25T06:56:52.008Z,11872.00
2018-02-25T06:57:51.994Z,14336.00
2018-02-25T06:58:51.982Z,18048.00
2018-02-25T06:59:51.969Z,13664.00
2018-02-25T07:00:51.957Z,13152.00
2018-02-25T07:01:51.947Z,15904.00
2018-02-25T07:02:51.940Z,17024.00
2018-02-25T07:03:51.924Z,16736.00
2018-02-25T07:04:51.907Z,16128.00
2018-02-25T07:05:51.894Z,18976.00
2018-02-25T07:06:51.889Z,19360.00
2018-02-25T07:07:51.876Z,16896.00
2018-02-25T07:08:51.912Z,16480.00
2018-02-25T07:09:51.855Z,18592.00
2018-02-25T07:10:51.844Z,19808.00
2018-02-25T07:11:51.833Z,18816.00
2018-02-25T07:12:51.820Z,17824.00
2018-02-25T07:13:51.817Z,17856.00
2018-02-25T07:14:51.811Z,20576.00
2018-02-25T07:15:52.856Z,21280.00
2018-02-25T07:16:51.963Z,19328.00
2018-02-25T07:17:51.858Z,16704.00
2018-02-25T07:18:51.801Z,16448.00
2018-02-25T07:19:51.792Z,20064.00
2018-02-25T07:20:51.788Z,23072.00
2018-02-25T07:21:51.773Z,21632.00
2018-02-25T07:22:51.747Z,18592.00
2018-02-25T07:23:51.727Z,16960.00
2018-02-25T07:24:51.717Z,17504.00
2018-02-25T07:25:51.709Z,23424.00
2018-02-25T07:26:51.741Z,24352.00
2018-02-25T07:27:51.766Z,25312.00
2018-02-25T07:28:51.700Z,24032.00
2018-02-25T07:29:51.718Z,18368.00
2018-02-25T07:30:51.726Z,16576.00
2018-02-25T07:31:51.750Z,20192.00
2018-02-25T07:32:51.692Z,23712.00
2018-02-25T07:33:51.684Z,24352.00
2018-02-25T07:34:51.654Z,20448.00
2018-02-25T07:35:51.641Z,19232.00
2018-02-25T07:36:51.666Z,24640.00
2018-02-25T07:37:51.629Z,25888.00
2018-02-25T07:38:51.622Z,22112.00
2018-02-25T07:39:51.630Z,20032.00
2018-02-25T07:40:51.614Z,22080.00
2018-02-25T07:41:51.634Z,23808.00
2018-02-25T07:42:51.612Z,25408.00
2018-02-25T07:43:51.597Z,24384.00
2018-02-25T07:44:51.647Z,26592.00
2018-02-25T07:45:51.610Z,25632.00
2018-02-25T07:46:51.590Z,24256.00
2018-02-25T07:47:51.573Z,26688.00
2018-02-25T07:48:51.593Z,26912.00
2018-02-25T07:49:51.588Z,26624.00
2018-02-25T07:50:51.572Z,23360.00
2018-02-25T07:51:51.567Z,22688.00
2018-02-25T07:52:52.287Z,28288.00
2018-02-25T07:53:51.557Z,28032.00
2018-02-25T07:54:51.574Z,26912.00
2018-02-25T07:55:51.551Z,20576.00
2018-02-25T07:56:51.563Z,28128.00
2018-02-25T07:57:51.542Z,25696.00
2018-02-25T07:58:51.619Z,31360.00
2018-02-25T07:59:51.529Z,34560.00
2018-02-25T08:00:51.530Z,28960.00
2018-02-25T08:01:51.519Z,28256.00
2018-02-25T08:02:51.525Z,24704.00
2018-02-25T08:03:51.522Z,4636.00
2018-02-25T08:04:51.511Z,4244.00
2018-02-25T08:05:51.507Z,6544.00
2018-02-25T08:06:51.508Z,4736.00
2018-02-25T08:07:51.499Z,4860.00
2018-02-25T08:08:51.494Z,5648.00
2018-02-25T08:09:51.484Z,5544.00
2018-02-25T08:10:51.480Z,6028.00
2018-02-25T08:11:51.474Z,6384.00
2018-02-25T08:12:51.472Z,6588.00
2018-02-25T08:13:51.465Z,14440.00
2018-02-25T08:14:51.454Z,10240.00
2018-02-25T08:15:51.445Z,11708.00
2018-02-25T08:16:51.440Z,8828.00
2018-02-25T08:17:51.432Z,7648.00
2018-02-25T08:18:51.425Z,12588.00
2018-02-25T08:19:51.419Z,7344.00
2018-02-25T08:20:51.405Z,14656.00
2018-02-25T08:21:51.409Z,7360.00
2018-02-25T08:22:51.393Z,4712.00
2018-02-25T08:23:51.380Z,6128.00
2018-02-25T08:24:51.374Z,5936.00
2018-02-25T08:25:51.363Z,5944.00
2018-02-25T08:26:52.274Z,5724.00
2018-02-25T08:27:51.352Z,8824.00
2018-02-25T08:28:51.336Z,12088.00
2018-02-25T08:29:51.327Z,14300.00
2018-02-25T08:30:51.320Z,11280.00
2018-02-25T08:31:51.305Z,10892.00
2018-02-25T08:32:51.296Z,9472.00
2018-02-25T08:33:51.290Z,8712.00
2018-02-25T08:34:51.275Z,12448.00
2018-02-25T08:35:51.267Z,9912.00
2018-02-25T08:36:51.254Z,29280.00
2018-02-25T08:37:51.279Z,26784.00
2018-02-25T08:38:51.236Z,12092.00
2018-02-25T08:39:51.236Z,24480.00
2018-02-25T08:40:51.221Z,14364.00
2018-02-25T08:41:51.280Z,24576.00
2018-02-25T08:42:51.287Z,20736.00
2018-02-25T08:43:51.194Z,7016.00
2018-02-25T08:44:51.184Z,7064.00
2018-02-25T08:45:51.306Z,6944.00
2018-02-25T08:46:51.174Z,18752.00
2018-02-25T08:47:51.199Z,12248.00
2018-02-25T08:48:51.195Z,5420.00
2018-02-25T08:49:51.151Z,5232.00
2018-02-25T08:50:51.141Z,5440.00
2018-02-25T08:51:51.135Z,17472.00
2018-02-25T08:52:51.126Z,18336.00
2018-02-25T08:53:51.121Z,7012.00
2018-02-25T08:54:51.109Z,5060.00
2018-02-25T08:55:51.110Z,5800.00
2018-02-25T08:56:51.090Z,7928.00
2018-02-25T08:57:51.085Z,7532.00
2018-02-25T08:58:51.088Z,12800.00
2018-02-25T08:59:51.068Z,13592.00
2018-02-25T09:00:51.053Z,11568.00
2018-02-25T09:01:51.045Z,7284.00
2018-02-25T09:02:51.035Z,7164.00
2018-02-25T09:03:51.028Z,5968.00
2018-02-25T09:04:51.016Z,5056.00
2018-02-25T09:05:51.010Z,5292.00
2018-02-25T09:06:51.024Z,6644.00
2018-02-25T09:07:50.991Z,5612.00
2018-02-25T09:08:50.982Z,5620.00
2018-02-25T09:09:50.980Z,22880.00
2018-02-25T09:10:50.966Z,27872.00
2018-02-25T09:11:50.953Z,9736.00
2018-02-25T09:12:50.940Z,10468.00
2018-02-25T09:13:50.933Z,27584.00
2018-02-25T09:14:50.940Z,26080.00
2018-02-25T09:15:50.934Z,30400.00
2018-02-25T09:16:50.932Z,11788.00
2018-02-25T09:17:50.902Z,27552.00
2018-02-25T09:18:50.889Z,28928.00
2018-02-25T09:19:50.885Z,27904.00
2018-02-25T09:20:50.875Z,26592.00
2018-02-25T09:21:50.905Z,27424.00
2018-02-25T09:22:50.871Z,28608.00
2018-02-25T09:23:50.860Z,37632.00
2018-02-25T09:24:50.855Z,57920.00
2018-02-25T09:25:50.855Z,75648.00
2018-02-25T09:26:50.851Z,80736.00
2018-02-25T09:27:50.848Z,82400.00
2018-02-25T09:28:50.850Z,80320.00
2018-02-25T09:29:51.030Z,80032.00
2018-02-25T09:30:50.847Z,76704.00
2018-02-25T09:31:50.893Z,76544.00
2018-02-25T09:34:22.433Z,46112.00
2018-02-25T09:37:07.245Z,76864.00
2018-02-25T09:38:05.310Z,11724.00
2018-02-25T09:39:05.313Z,12432.00
2018-02-25T09:40:08.072Z,80192.00
2018-02-25T09:41:06.106Z,36896.00
2018-02-25T09:42:07.057Z,11412.00
2018-02-25T09:43:05.243Z,9448.00
2018-02-25T09:44:05.224Z,82368.00
2018-02-25T09:45:05.226Z,58016.00
2018-02-25T09:46:05.381Z,83008.00
2018-02-25T09:47:05.228Z,84160.00
2018-02-25T09:48:06.034Z,83616.00
2018-02-25T09:49:05.232Z,84320.00
2018-02-25T09:50:05.234Z,50624.00
2018-02-25T09:51:05.248Z,88864.00
2018-02-25T09:53:55.237Z,88320.00
2018-02-25T09:55:00.738Z,85632.00
2018-02-25T09:57:36.944Z,87552.00
2018-02-25T09:58:36.934Z,88800.00
2018-02-25T10:00:32.266Z,84640.00
2018-02-25T10:01:32.389Z,85728.00
2018-02-25T10:03:26.597Z,13060.00
2018-02-25T10:04:27.270Z,47648.00
2018-02-25T10:06:21.052Z,89568.00
2018-02-25T10:07:21.025Z,88384.00
2018-02-25T10:09:28.115Z,88416.00
2018-02-25T10:10:28.109Z,87936.00
2018-02-25T10:12:22.590Z,86688.00
2018-02-25T10:13:22.504Z,87872.00
2018-02-25T10:15:17.920Z,86592.00
2018-02-25T10:16:17.924Z,87392.00
2018-02-25T10:18:12.416Z,81472.00
2018-02-25T10:19:12.434Z,80864.00
2018-02-25T10:21:07.872Z,83072.00
2018-02-25T10:22:15.435Z,84608.00
2018-02-25T10:24:01.192Z,86080.00
2018-02-25T10:25:01.150Z,89632.00
2018-02-25T10:26:55.522Z,85440.00
2018-02-25T10:27:55.526Z,88640.00
2018-02-25T10:29:49.949Z,86912.00
2018-02-25T10:30:49.974Z,88384.00
2018-02-25T10:32:44.467Z,87904.00
2018-02-25T10:33:44.455Z,87712.00
2018-02-25T10:34:44.449Z,86016.00
2018-02-25T10:35:45.959Z,81888.00
2018-02-25T10:36:46.987Z,81024.00
2018-02-25T10:37:53.958Z,75040.00
2018-02-25T10:39:42.386Z,9640.00
2018-02-25T10:40:42.204Z,6992.00
2018-02-25T10:41:42.194Z,6572.00
2018-02-25T10:42:42.200Z,6368.00
2018-02-25T10:43:43.783Z,7984.00
2018-02-25T10:44:42.210Z,6388.00
2018-02-25T10:45:42.209Z,7864.00
2018-02-25T10:46:42.198Z,6804.00
2018-02-25T10:47:42.204Z,6136.00
2018-02-25T10:48:42.197Z,6312.00
2018-02-25T10:49:42.203Z,6268.00
2018-02-25T10:50:42.192Z,6612.00
2018-02-25T10:51:42.200Z,6232.00
2018-02-25T10:52:42.205Z,6048.00
2018-02-25T10:53:42.188Z,6128.00
2018-02-25T10:54:42.187Z,6420.00
2018-02-25T10:55:42.186Z,6688.00
2018-02-25T10:56:42.173Z,7160.00
2018-02-25T10:57:42.425Z,8244.00
2018-02-25T10:58:42.267Z,7484.00
2018-02-25T10:59:50.889Z,7436.00
2018-02-25T11:01:36.739Z,6548.00
2018-02-25T11:02:36.591Z,6940.00
2018-02-25T11:04:30.885Z,6080.00
2018-02-25T11:05:30.923Z,5980.00
2018-02-25T11:07:25.266Z,5656.00
2018-02-25T11:08:25.309Z,5956.00
2018-02-25T11:09:25.278Z,6312.00
2018-02-25T11:10:25.256Z,6008.00
2018-02-25T11:12:56.617Z,5800.00
2018-02-25T11:13:56.521Z,5904.00
2018-02-25T11:16:47.423Z,6052.00
2018-02-25T11:19:07.384Z,5388.00
2018-02-25T11:20:07.325Z,5360.00
2018-02-25T11:22:27.944Z,5428.00
2018-02-25T11:23:50.136Z,5216.00
2018-02-25T11:25:22.395Z,5432.00
2018-02-25T11:27:58.035Z,5172.00
2018-02-25T11:28:57.982Z,5312.00
2018-02-25T11:29:57.992Z,5148.00
2018-02-25T11:30:57.965Z,5140.00
2018-02-25T11:31:57.933Z,5128.00
2018-02-25T11:32:57.924Z,5100.00
2018-02-25T11:33:57.917Z,5088.00
2018-02-25T11:34:57.909Z,5080.00
2018-02-25T11:35:57.903Z,5060.00
2018-02-25T11:36:57.894Z,4620.00
2018-02-25T11:37:57.893Z,4924.00
2018-02-25T11:38:57.881Z,4936.00
2018-02-25T11:39:57.875Z,4916.00
2018-02-25T11:40:57.869Z,4980.00
2018-02-25T11:41:57.862Z,4980.00
2018-02-25T11:42:57.855Z,4884.00
2018-02-25T11:43:57.879Z,4864.00
2018-02-25T11:44:57.844Z,4884.00
2018-02-25T11:45:57.830Z,4864.00
2018-02-25T11:47:06.508Z,4844.00
2018-02-25T11:48:52.228Z,4888.00
2018-02-25T11:49:52.317Z,4936.00
2018-02-25T11:51:47.172Z,5108.00
2018-02-25T11:52:46.686Z,5040.00
2018-02-25T11:54:40.898Z,5020.00
2018-02-25T11:55:40.876Z,4956.00
2018-02-25T11:57:35.232Z,4572.00
2018-02-25T11:58:35.217Z,4280.00
2018-02-25T12:00:29.625Z,3944.00
2018-02-25T12:01:29.581Z,3600.00
2018-02-25T12:03:23.975Z,3232.00
2018-02-25T12:04:24.519Z,3412.00
2018-02-25T12:06:18.274Z,4228.00
2018-02-25T12:07:18.245Z,4600.00
2018-02-25T12:09:12.629Z,4592.00
2018-02-25T12:10:12.602Z,4552.00
2018-02-25T12:12:06.975Z,4460.00
2018-02-25T12:13:06.928Z,4260.00
2018-02-25T12:15:01.298Z,4364.00
2018-02-25T12:16:01.274Z,4464.00
2018-02-25T12:17:55.645Z,4320.00
2018-02-25T12:18:55.629Z,4248.00
2018-02-25T12:20:50.130Z,4108.00
2018-02-25T12:21:50.079Z,4080.00
2018-02-25T12:23:44.438Z,4016.00
2018-02-25T12:24:44.387Z,4000.00
2018-02-25T12:26:38.747Z,4092.00
2018-02-25T12:27:38.738Z,4004.00
2018-02-25T12:29:33.142Z,3876.00
2018-02-25T12:30:33.093Z,3840.00
2018-02-25T12:32:27.453Z,3792.00
2018-02-25T12:33:27.440Z,3884.00
2018-02-25T12:35:21.833Z,3936.00
2018-02-25T12:36:21.790Z,3856.00
2018-02-25T12:38:16.120Z,3612.00
2018-02-25T12:39:16.136Z,3508.00
2018-02-25T12:41:10.500Z,3456.00
2018-02-25T12:42:10.551Z,3420.00
2018-02-25T12:44:04.882Z,3384.00
2018-02-25T12:45:04.866Z,3376.00
2018-02-25T12:46:59.232Z,3352.00
2018-02-25T12:47:59.182Z,3364.00
2018-02-25T12:49:53.545Z,3356.00
2018-02-25T12:50:53.512Z,3348.00
2018-02-25T12:52:48.196Z,3312.00
2018-02-25T12:53:48.190Z,3288.00
2018-02-25T12:55:42.797Z,3272.00
2018-02-25T12:56:42.591Z,3280.00
2018-02-25T12:58:37.782Z,3520.00
2018-02-25T12:59:37.746Z,3600.00
2018-02-25T13:01:33.864Z,3580.00
2018-02-25T13:02:32.060Z,3544.00
2018-02-25T13:04:26.599Z,3480.00
2018-02-25T13:05:35.097Z,3428.00
2018-02-25T13:08:03.468Z,3276.00
2018-02-25T13:09:03.427Z,3252.00
2018-02-25T13:10:03.453Z,2740.00
2018-02-25T13:11:03.348Z,3176.00
2018-02-25T13:12:04.982Z,3176.00
2018-02-25T13:13:04.912Z,3164.00
2018-02-25T13:14:03.303Z,3140.00
2018-02-25T13:15:03.313Z,3128.00
2018-02-25T13:16:03.290Z,3132.00
2018-02-25T13:17:03.281Z,3120.00
2018-02-25T13:18:03.300Z,3104.00
2018-02-25T13:19:05.033Z,3092.00
2018-02-25T13:20:03.300Z,3132.00
2018-02-25T13:21:03.250Z,3084.00
2018-02-25T13:22:03.311Z,3000.00
2018-02-25T13:23:03.277Z,2996.00
2018-02-25T13:24:03.261Z,3000.00
2018-02-25T13:25:03.295Z,2996.00
2018-02-25T13:26:03.226Z,3004.00
2018-02-25T13:27:03.198Z,2984.00
2018-02-25T13:28:03.180Z,2984.00
2018-02-25T13:29:03.220Z,2980.00
2018-02-25T13:30:05.068Z,2968.00
2018-02-25T13:31:03.205Z,2936.00
2018-02-25T13:32:04.387Z,2932.00
2018-02-25T13:33:05.183Z,2652.00